KOAJ/OAJ METAR and TAF weather

Enter ICAO airport designator
Station Type Date Time Source
KOAJ METAR 2019/10/15 17:56 UTC NOAA

KOAJ 151756Z 07005KT 10SM CLR 25/08 A3009 RMK AO2 SLP191 T02500078 10250 20100 58016


Station Type Date Time Source
KOAJ Decoded METAR 2019/10/15 17:56 UTC NOAA

Jacksonville, Albert J Ellis Airport, NC, United States (KOAJ) 34-50N 077-37W
Oct 15, 2019 - 01:56 PM EDT / 2019.10.15 1756 UTC
Wind: from the ENE (070 degrees) at 6 MPH (5 KT):0
Visibility: 10 mile(s):0
Sky conditions: clear
Temperature: 77.0 F (25.0 C)
Dew Point: 46.0 F (7.8 C)
Relative Humidity: 33%
Pressure (altimeter): 30.09 in. Hg (1018 hPa)
Pressure tendency: 0.05 inches (1.6 hPa) lower than three hours ago
ob: KOAJ 151756Z 07005KT 10SM CLR 25/08 A3009 RMK AO2 SLP191 T02500078 10250 20100 58016
cycle: 18

Station Type Date Time Source
KOAJ TAF 2019/10/15 18:27 UTC NOAA

TAF KOAJ 151724Z 1518/1618 VRB04KT P6SM BKN250
FM161100 VRB03KT P6SM -SHRA OVC025
FM161300 15005KT 3SM SHRA OVC005
AMD LTD TO CLD VIS AND WIND

Example: see airport list